MXL weather

General Rodolfo Sánchez Taboada International Airport
Mexicali, Baja California, Mexico

Public forecast

Using degrees Celsius for public forecast. Weather courtesy of forecast.io.

Current aviation weather report (METAR) for General Rodolfo Sánchez Taboada International Airport

Retrieved 2019/10/17 21:41 UTC (12 minutes ago):

MMML 172141Z 21009KT 10SM SKC 34/M03 A2963

Aviation forecast (TAF) for General Rodolfo Sánchez Taboada International Airport

Retrieved 2019/10/17 18:06 UTC (4 hours ago):

TAF MMML 171659Z 1718/1818 27010KT P6SM SKC FM180400 29010KT P6SM SKC FM181600 32010KT P6SM SKC